sensor_id;sensor_type;location;lat;lon;timestamp;P1;durP1;ratioP1;P2;durP2;ratioP2
41829;SDS011;38614;43.472;23.936;2024-03-06T00:02:43;45.05;;;14.10;;
41829;SDS011;38614;43.472;23.936;2024-03-06T00:05:30;44.95;;;15.00;;
41829;SDS011;38614;43.472;23.936;2024-03-06T00:08:21;40.08;;;15.18;;
41829;SDS011;38614;43.472;23.936;2024-03-06T00:11:09;31.85;;;13.25;;
41829;SDS011;38614;43.472;23.936;2024-03-06T00:13:57;52.10;;;14.05;;
41829;SDS011;38614;43.472;23.936;2024-03-06T00:16:45;46.92;;;15.88;;
41829;SDS011;38614;43.472;23.936;2024-03-06T00:19:32;48.72;;;14.45;;
41829;SDS011;38614;43.472;23.936;2024-03-06T00:22:20;49.92;;;18.75;;
41829;SDS011;38614;43.472;23.936;2024-03-06T00:25:10;51.20;;;17.10;;
41829;SDS011;38614;43.472;23.936;2024-03-06T00:27:57;55.13;;;17.52;;
41829;SDS011;38614;43.472;23.936;2024-03-06T00:30:45;53.28;;;16.83;;
41829;SDS011;38614;43.472;23.936;2024-03-06T00:33:33;58.00;;;17.88;;
41829;SDS011;38614;43.472;23.936;2024-03-06T00:36:20;55.25;;;17.88;;
41829;SDS011;38614;43.472;23.936;2024-03-06T00:39:10;65.13;;;19.00;;
41829;SDS011;38614;43.472;23.936;2024-03-06T00:41:58;56.47;;;19.10;;
41829;SDS011;38614;43.472;23.936;2024-03-06T00:44:46;64.68;;;18.15;;
41829;SDS011;38614;43.472;23.936;2024-03-06T00:47:34;64.30;;;18.05;;
41829;SDS011;38614;43.472;23.936;2024-03-06T00:50:22;67.05;;;19.08;;
41829;SDS011;38614;43.472;23.936;2024-03-06T00:53:10;55.22;;;17.73;;
41829;SDS011;38614;43.472;23.936;2024-03-06T00:55:57;61.17;;;17.90;;
41829;SDS011;38614;43.472;23.936;2024-03-06T00:58:45;54.95;;;17.17;;
41829;SDS011;38614;43.472;23.936;2024-03-06T01:01:33;65.63;;;20.38;;
41829;SDS011;38614;43.472;23.936;2024-03-06T01:04:21;51.85;;;17.48;;
41829;SDS011;38614;43.472;23.936;2024-03-06T01:07:09;53.80;;;18.92;;
41829;SDS011;38614;43.472;23.936;2024-03-06T01:09:56;54.03;;;18.50;;
41829;SDS011;38614;43.472;23.936;2024-03-06T01:12:48;59.88;;;17.23;;
41829;SDS011;38614;43.472;23.936;2024-03-06T01:15:39;64.50;;;16.55;;
41829;SDS011;38614;43.472;23.936;2024-03-06T01:18:27;59.25;;;17.73;;
41829;SDS011;38614;43.472;23.936;2024-03-06T01:21:14;65.30;;;18.90;;
41829;SDS011;38614;43.472;23.936;2024-03-06T01:24:02;68.40;;;19.85;;
41829;SDS011;38614;43.472;23.936;2024-03-06T01:26:50;54.33;;;17.92;;
41829;SDS011;38614;43.472;23.936;2024-03-06T01:29:38;51.58;;;18.35;;
41829;SDS011;38614;43.472;23.936;2024-03-06T01:32:26;65.97;;;18.88;;
41829;SDS011;38614;43.472;23.936;2024-03-06T01:35:13;63.35;;;19.35;;
41829;SDS011;38614;43.472;23.936;2024-03-06T01:38:01;56.60;;;17.20;;
41829;SDS011;38614;43.472;23.936;2024-03-06T01:40:50;55.80;;;15.43;;
41829;SDS011;38614;43.472;23.936;2024-03-06T01:43:38;48.97;;;14.50;;
41829;SDS011;38614;43.472;23.936;2024-03-06T01:46:26;49.55;;;15.50;;
41829;SDS011;38614;43.472;23.936;2024-03-06T01:49:14;59.85;;;18.33;;
41829;SDS011;38614;43.472;23.936;2024-03-06T01:52:15;57.13;;;18.67;;
41829;SDS011;38614;43.472;23.936;2024-03-06T01:55:04;50.63;;;16.30;;
41829;SDS011;38614;43.472;23.936;2024-03-06T01:57:52;41.83;;;16.05;;
41829;SDS011;38614;43.472;23.936;2024-03-06T02:00:40;55.35;;;18.00;;
41829;SDS011;38614;43.472;23.936;2024-03-06T02:03:28;54.90;;;17.92;;
41829;SDS011;38614;43.472;23.936;2024-03-06T02:06:16;50.33;;;16.40;;
41829;SDS011;38614;43.472;23.936;2024-03-06T02:09:07;56.03;;;17.27;;
41829;SDS011;38614;43.472;23.936;2024-03-06T02:11:59;44.90;;;15.73;;
41829;SDS011;38614;43.472;23.936;2024-03-06T02:14:58;47.30;;;16.23;;
41829;SDS011;38614;43.472;23.936;2024-03-06T02:17:46;55.17;;;18.42;;
41829;SDS011;38614;43.472;23.936;2024-03-06T02:20:33;55.42;;;18.48;;
41829;SDS011;38614;43.472;23.936;2024-03-06T02:23:22;43.08;;;14.95;;
41829;SDS011;38614;43.472;23.936;2024-03-06T02:26:10;47.22;;;15.95;;
41829;SDS011;38614;43.472;23.936;2024-03-06T02:28:59;51.85;;;16.83;;
41829;SDS011;38614;43.472;23.936;2024-03-06T02:31:47;52.90;;;18.55;;
41829;SDS011;38614;43.472;23.936;2024-03-06T02:34:35;55.42;;;17.20;;
41829;SDS011;38614;43.472;23.936;2024-03-06T02:37:23;47.63;;;17.27;;
41829;SDS011;38614;43.472;23.936;2024-03-06T02:40:12;55.38;;;18.10;;
41829;SDS011;38614;43.472;23.936;2024-03-06T02:42:59;53.15;;;18.88;;
41829;SDS011;38614;43.472;23.936;2024-03-06T02:45:47;56.90;;;19.83;;
41829;SDS011;38614;43.472;23.936;2024-03-06T02:48:35;53.28;;;18.20;;
41829;SDS011;38614;43.472;23.936;2024-03-06T02:51:23;59.72;;;18.10;;
41829;SDS011;38614;43.472;23.936;2024-03-06T02:54:11;63.72;;;19.10;;
41829;SDS011;38614;43.472;23.936;2024-03-06T02:57:00;63.78;;;17.58;;
41829;SDS011;38614;43.472;23.936;2024-03-06T02:59:50;64.65;;;19.40;;
41829;SDS011;38614;43.472;23.936;2024-03-06T03:02:39;62.25;;;18.90;;
41829;SDS011;38614;43.472;23.936;2024-03-06T03:05:27;62.33;;;21.98;;
41829;SDS011;38614;43.472;23.936;2024-03-06T03:08:15;51.25;;;18.05;;
41829;SDS011;38614;43.472;23.936;2024-03-06T03:11:03;63.65;;;17.52;;
41829;SDS011;38614;43.472;23.936;2024-03-06T03:13:51;68.28;;;20.20;;
41829;SDS011;38614;43.472;23.936;2024-03-06T03:16:39;68.88;;;20.30;;
41829;SDS011;38614;43.472;23.936;2024-03-06T03:19:26;76.40;;;21.50;;
41829;SDS011;38614;43.472;23.936;2024-03-06T03:22:14;63.28;;;19.00;;
41829;SDS011;38614;43.472;23.936;2024-03-06T03:25:02;73.05;;;21.05;;
41829;SDS011;38614;43.472;23.936;2024-03-06T03:27:50;68.75;;;20.88;;
41829;SDS011;38614;43.472;23.936;2024-03-06T03:30:37;68.78;;;20.35;;
41829;SDS011;38614;43.472;23.936;2024-03-06T03:33:25;66.88;;;22.73;;
41829;SDS011;38614;43.472;23.936;2024-03-06T03:36:15;68.03;;;23.83;;
41829;SDS011;38614;43.472;23.936;2024-03-06T03:39:02;58.30;;;18.80;;
41829;SDS011;38614;43.472;23.936;2024-03-06T03:42:06;69.57;;;20.95;;
41829;SDS011;38614;43.472;23.936;2024-03-06T03:44:56;63.10;;;21.88;;
41829;SDS011;38614;43.472;23.936;2024-03-06T03:47:44;57.67;;;23.13;;
41829;SDS011;38614;43.472;23.936;2024-03-06T03:50:36;58.72;;;21.52;;
41829;SDS011;38614;43.472;23.936;2024-03-06T03:53:24;58.55;;;21.33;;
41829;SDS011;38614;43.472;23.936;2024-03-06T03:56:12;56.05;;;20.98;;
41829;SDS011;38614;43.472;23.936;2024-03-06T03:59:01;75.88;;;24.65;;
41829;SDS011;38614;43.472;23.936;2024-03-06T04:01:48;69.53;;;21.73;;
41829;SDS011;38614;43.472;23.936;2024-03-06T04:04:37;58.95;;;24.38;;
41829;SDS011;38614;43.472;23.936;2024-03-06T04:07:25;60.85;;;23.65;;
41829;SDS011;38614;43.472;23.936;2024-03-06T04:10:14;70.75;;;22.90;;
41829;SDS011;38614;43.472;23.936;2024-03-06T04:13:02;52.53;;;20.23;;
41829;SDS011;38614;43.472;23.936;2024-03-06T04:15:50;51.22;;;16.95;;
41829;SDS011;38614;43.472;23.936;2024-03-06T04:18:38;63.60;;;19.00;;
41829;SDS011;38614;43.472;23.936;2024-03-06T04:21:25;56.65;;;18.50;;
41829;SDS011;38614;43.472;23.936;2024-03-06T04:24:13;54.75;;;20.50;;
41829;SDS011;38614;43.472;23.936;2024-03-06T04:27:01;63.55;;;18.58;;
41829;SDS011;38614;43.472;23.936;2024-03-06T04:29:53;51.47;;;17.60;;
41829;SDS011;38614;43.472;23.936;2024-03-06T04:32:40;57.80;;;16.15;;
41829;SDS011;38614;43.472;23.936;2024-03-06T04:35:28;54.50;;;17.13;;
41829;SDS011;38614;43.472;23.936;2024-03-06T04:38:16;45.78;;;16.00;;
41829;SDS011;38614;43.472;23.936;2024-03-06T04:41:05;43.60;;;16.10;;
41829;SDS011;38614;43.472;23.936;2024-03-06T04:43:53;53.08;;;16.42;;
41829;SDS011;38614;43.472;23.936;2024-03-06T04:46:53;63.63;;;17.40;;
41829;SDS011;38614;43.472;23.936;2024-03-06T04:49:41;51.60;;;16.27;;
41829;SDS011;38614;43.472;23.936;2024-03-06T04:52:29;63.42;;;17.85;;
41829;SDS011;38614;43.472;23.936;2024-03-06T04:55:17;49.72;;;16.35;;
41829;SDS011;38614;43.472;23.936;2024-03-06T04:58:10;66.43;;;19.23;;
41829;SDS011;38614;43.472;23.936;2024-03-06T05:01:01;57.50;;;18.85;;
41829;SDS011;38614;43.472;23.936;2024-03-06T05:03:54;57.55;;;18.30;;
41829;SDS011;38614;43.472;23.936;2024-03-06T05:06:58;61.97;;;19.85;;
41829;SDS011;38614;43.472;23.936;2024-03-06T05:10:13;61.45;;;22.80;;
41829;SDS011;38614;43.472;23.936;2024-03-06T05:13:40;51.33;;;17.33;;
41829;SDS011;38614;43.472;23.936;2024-03-06T05:16:46;51.80;;;16.40;;
41829;SDS011;38614;43.472;23.936;2024-03-06T05:19:50;44.72;;;16.42;;
41829;SDS011;38614;43.472;23.936;2024-03-06T05:22:55;48.08;;;16.35;;
41829;SDS011;38614;43.472;23.936;2024-03-06T05:26:00;38.45;;;14.80;;
41829;SDS011;38614;43.472;23.936;2024-03-06T05:29:05;40.67;;;14.57;;
41829;SDS011;38614;43.472;23.936;2024-03-06T05:32:10;40.17;;;14.88;;
41829;SDS011;38614;43.472;23.936;2024-03-06T05:35:15;43.20;;;16.55;;
41829;SDS011;38614;43.472;23.936;2024-03-06T05:38:20;41.45;;;18.10;;
41829;SDS011;38614;43.472;23.936;2024-03-06T05:41:26;61.75;;;20.45;;
41829;SDS011;38614;43.472;23.936;2024-03-06T05:44:31;50.30;;;19.83;;
41829;SDS011;38614;43.472;23.936;2024-03-06T05:47:37;47.45;;;19.58;;
41829;SDS011;38614;43.472;23.936;2024-03-06T05:50:42;48.15;;;17.27;;
41829;SDS011;38614;43.472;23.936;2024-03-06T05:53:47;54.97;;;17.88;;
41829;SDS011;38614;43.472;23.936;2024-03-06T05:56:52;44.47;;;16.40;;
41829;SDS011;38614;43.472;23.936;2024-03-06T05:59:58;45.45;;;16.75;;
41829;SDS011;38614;43.472;23.936;2024-03-06T06:02:45;45.35;;;15.48;;
41829;SDS011;38614;43.472;23.936;2024-03-06T06:05:33;50.15;;;18.00;;
41829;SDS011;38614;43.472;23.936;2024-03-06T06:08:21;47.55;;;16.58;;
41829;SDS011;38614;43.472;23.936;2024-03-06T06:11:08;51.92;;;17.58;;
41829;SDS011;38614;43.472;23.936;2024-03-06T06:13:56;45.70;;;17.85;;
41829;SDS011;38614;43.472;23.936;2024-03-06T06:16:45;40.47;;;16.95;;
41829;SDS011;38614;43.472;23.936;2024-03-06T06:19:32;35.38;;;15.77;;
41829;SDS011;38614;43.472;23.936;2024-03-06T06:22:20;41.22;;;15.70;;
41829;SDS011;38614;43.472;23.936;2024-03-06T06:25:08;36.33;;;15.77;;
41829;SDS011;38614;43.472;23.936;2024-03-06T06:27:57;39.30;;;16.55;;
41829;SDS011;38614;43.472;23.936;2024-03-06T06:30:45;45.22;;;14.90;;
41829;SDS011;38614;43.472;23.936;2024-03-06T06:33:33;44.72;;;15.73;;
41829;SDS011;38614;43.472;23.936;2024-03-06T06:36:21;36.80;;;14.35;;
41829;SDS011;38614;43.472;23.936;2024-03-06T06:39:09;42.20;;;14.77;;
41829;SDS011;38614;43.472;23.936;2024-03-06T06:41:58;38.75;;;14.93;;
41829;SDS011;38614;43.472;23.936;2024-03-06T06:44:46;43.92;;;16.58;;
41829;SDS011;38614;43.472;23.936;2024-03-06T06:47:34;45.22;;;16.88;;
41829;SDS011;38614;43.472;23.936;2024-03-06T06:50:22;37.63;;;17.13;;
41829;SDS011;38614;43.472;23.936;2024-03-06T06:53:13;41.83;;;17.60;;
41829;SDS011;38614;43.472;23.936;2024-03-06T06:56:02;41.15;;;16.52;;
41829;SDS011;38614;43.472;23.936;2024-03-06T06:58:49;37.35;;;15.60;;
41829;SDS011;38614;43.472;23.936;2024-03-06T07:01:37;42.95;;;14.40;;
41829;SDS011;38614;43.472;23.936;2024-03-06T07:04:25;42.25;;;15.68;;
41829;SDS011;38614;43.472;23.936;2024-03-06T07:07:12;35.22;;;14.27;;
41829;SDS011;38614;43.472;23.936;2024-03-06T07:10:01;36.45;;;13.48;;
41829;SDS011;38614;43.472;23.936;2024-03-06T07:12:49;38.58;;;13.95;;
41829;SDS011;38614;43.472;23.936;2024-03-06T07:15:37;34.42;;;13.75;;
41829;SDS011;38614;43.472;23.936;2024-03-06T07:18:24;32.55;;;14.45;;
41829;SDS011;38614;43.472;23.936;2024-03-06T07:21:12;43.28;;;14.27;;
41829;SDS011;38614;43.472;23.936;2024-03-06T07:24:00;37.50;;;15.25;;
41829;SDS011;38614;43.472;23.936;2024-03-06T07:26:48;45.63;;;14.18;;
41829;SDS011;38614;43.472;23.936;2024-03-06T07:29:39;42.88;;;14.02;;
41829;SDS011;38614;43.472;23.936;2024-03-06T07:32:29;40.10;;;14.30;;
41829;SDS011;38614;43.472;23.936;2024-03-06T07:35:17;32.47;;;14.80;;
41829;SDS011;38614;43.472;23.936;2024-03-06T07:38:05;34.92;;;15.07;;
41829;SDS011;38614;43.472;23.936;2024-03-06T07:40:53;38.42;;;15.43;;
41829;SDS011;38614;43.472;23.936;2024-03-06T07:43:40;39.30;;;14.18;;
41829;SDS011;38614;43.472;23.936;2024-03-06T07:46:28;32.45;;;15.07;;
41829;SDS011;38614;43.472;23.936;2024-03-06T07:49:16;37.33;;;13.90;;
41829;SDS011;38614;43.472;23.936;2024-03-06T07:52:04;32.70;;;14.77;;
41829;SDS011;38614;43.472;23.936;2024-03-06T07:54:52;36.67;;;14.05;;
41829;SDS011;38614;43.472;23.936;2024-03-06T07:57:39;30.92;;;13.07;;
41829;SDS011;38614;43.472;23.936;2024-03-06T08:00:30;29.13;;;13.52;;
41829;SDS011;38614;43.472;23.936;2024-03-06T08:03:18;30.45;;;13.13;;
41829;SDS011;38614;43.472;23.936;2024-03-06T08:06:06;29.83;;;12.50;;
41829;SDS011;38614;43.472;23.936;2024-03-06T08:08:54;38.45;;;15.27;;
41829;SDS011;38614;43.472;23.936;2024-03-06T08:11:44;34.83;;;14.20;;
41829;SDS011;38614;43.472;23.936;2024-03-06T08:14:31;34.72;;;13.57;;
41829;SDS011;38614;43.472;23.936;2024-03-06T08:17:19;29.83;;;13.48;;
41829;SDS011;38614;43.472;23.936;2024-03-06T08:20:10;39.33;;;13.95;;
41829;SDS011;38614;43.472;23.936;2024-03-06T08:22:59;33.30;;;12.57;;
41829;SDS011;38614;43.472;23.936;2024-03-06T08:25:47;28.38;;;14.23;;
41829;SDS011;38614;43.472;23.936;2024-03-06T08:28:35;31.02;;;13.48;;
41829;SDS011;38614;43.472;23.936;2024-03-06T08:31:22;40.47;;;14.23;;
41829;SDS011;38614;43.472;23.936;2024-03-06T08:34:13;37.60;;;15.65;;
41829;SDS011;38614;43.472;23.936;2024-03-06T08:37:00;49.58;;;16.48;;
41829;SDS011;38614;43.472;23.936;2024-03-06T08:39:48;42.67;;;17.95;;
41829;SDS011;38614;43.472;23.936;2024-03-06T08:42:36;35.08;;;15.73;;
41829;SDS011;38614;43.472;23.936;2024-03-06T08:45:24;44.83;;;17.00;;
41829;SDS011;38614;43.472;23.936;2024-03-06T08:48:12;33.63;;;15.38;;
41829;SDS011;38614;43.472;23.936;2024-03-06T08:51:00;36.50;;;14.25;;
41829;SDS011;38614;43.472;23.936;2024-03-06T08:53:47;30.02;;;14.82;;
41829;SDS011;38614;43.472;23.936;2024-03-06T08:56:39;35.70;;;15.60;;
41829;SDS011;38614;43.472;23.936;2024-03-06T08:59:27;28.58;;;12.32;;
41829;SDS011;38614;43.472;23.936;2024-03-06T09:02:15;29.35;;;13.48;;
41829;SDS011;38614;43.472;23.936;2024-03-06T09:05:05;30.45;;;12.65;;
41829;SDS011;38614;43.472;23.936;2024-03-06T09:07:53;30.25;;;13.00;;
41829;SDS011;38614;43.472;23.936;2024-03-06T09:10:40;30.02;;;13.98;;
41829;SDS011;38614;43.472;23.936;2024-03-06T09:13:28;28.70;;;12.88;;
41829;SDS011;38614;43.472;23.936;2024-03-06T09:16:16;22.05;;;11.80;;
41829;SDS011;38614;43.472;23.936;2024-03-06T09:19:06;25.05;;;12.48;;
41829;SDS011;38614;43.472;23.936;2024-03-06T09:21:53;25.35;;;12.35;;
41829;SDS011;38614;43.472;23.936;2024-03-06T09:24:41;27.95;;;12.52;;
41829;SDS011;38614;43.472;23.936;2024-03-06T09:27:29;24.77;;;11.88;;
41829;SDS011;38614;43.472;23.936;2024-03-06T09:30:18;27.63;;;12.75;;
41829;SDS011;38614;43.472;23.936;2024-03-06T09:33:06;31.42;;;13.15;;
41829;SDS011;38614;43.472;23.936;2024-03-06T09:35:54;23.92;;;11.57;;
41829;SDS011;38614;43.472;23.936;2024-03-06T09:38:44;28.67;;;11.85;;
41829;SDS011;38614;43.472;23.936;2024-03-06T09:41:33;40.10;;;12.77;;
41829;SDS011;38614;43.472;23.936;2024-03-06T09:44:21;29.23;;;13.38;;
41829;SDS011;38614;43.472;23.936;2024-03-06T09:47:10;32.47;;;12.27;;
41829;SDS011;38614;43.472;23.936;2024-03-06T09:49:59;27.58;;;11.80;;
41829;SDS011;38614;43.472;23.936;2024-03-06T09:52:51;36.13;;;13.00;;
41829;SDS011;38614;43.472;23.936;2024-03-06T09:55:39;32.97;;;11.95;;
41829;SDS011;38614;43.472;23.936;2024-03-06T09:58:28;28.67;;;13.15;;
41829;SDS011;38614;43.472;23.936;2024-03-06T10:01:15;35.80;;;13.27;;
41829;SDS011;38614;43.472;23.936;2024-03-06T10:07:25;34.17;;;14.05;;
41829;SDS011;38614;43.472;23.936;2024-03-06T10:10:14;35.78;;;14.45;;
41829;SDS011;38614;43.472;23.936;2024-03-06T10:13:03;36.10;;;13.48;;
41829;SDS011;38614;43.472;23.936;2024-03-06T10:16:01;35.92;;;13.93;;
41829;SDS011;38614;43.472;23.936;2024-03-06T10:18:48;40.47;;;14.55;;
41829;SDS011;38614;43.472;23.936;2024-03-06T10:21:36;33.47;;;13.63;;
41829;SDS011;38614;43.472;23.936;2024-03-06T10:24:25;42.67;;;16.23;;
41829;SDS011;38614;43.472;23.936;2024-03-06T10:27:14;31.13;;;12.35;;
41829;SDS011;38614;43.472;23.936;2024-03-06T10:30:04;31.65;;;14.25;;
41829;SDS011;38614;43.472;23.936;2024-03-06T10:32:53;35.03;;;13.48;;
41829;SDS011;38614;43.472;23.936;2024-03-06T10:35:43;33.47;;;14.43;;
41829;SDS011;38614;43.472;23.936;2024-03-06T10:38:32;36.83;;;14.68;;
41829;SDS011;38614;43.472;23.936;2024-03-06T10:41:22;34.60;;;14.90;;
41829;SDS011;38614;43.472;23.936;2024-03-06T10:44:12;32.03;;;14.55;;
41829;SDS011;38614;43.472;23.936;2024-03-06T10:47:05;36.78;;;15.90;;
41829;SDS011;38614;43.472;23.936;2024-03-06T10:49:59;28.25;;;13.32;;
41829;SDS011;38614;43.472;23.936;2024-03-06T10:52:50;30.08;;;14.65;;
41829;SDS011;38614;43.472;23.936;2024-03-06T10:55:42;35.55;;;15.30;;
41829;SDS011;38614;43.472;23.936;2024-03-06T10:58:31;35.75;;;13.40;;
41829;SDS011;38614;43.472;23.936;2024-03-06T11:01:22;33.78;;;14.55;;
41829;SDS011;38614;43.472;23.936;2024-03-06T11:04:10;33.97;;;13.93;;
41829;SDS011;38614;43.472;23.936;2024-03-06T11:07:03;24.45;;;12.50;;
41829;SDS011;38614;43.472;23.936;2024-03-06T11:09:50;30.50;;;13.18;;
41829;SDS011;38614;43.472;23.936;2024-03-06T11:12:38;28.50;;;14.50;;
41829;SDS011;38614;43.472;23.936;2024-03-06T11:15:26;36.08;;;15.13;;
41829;SDS011;38614;43.472;23.936;2024-03-06T11:24:15;45.20;;;16.10;;
41829;SDS011;38614;43.472;23.936;2024-03-06T11:27:03;43.78;;;16.52;;
41829;SDS011;38614;43.472;23.936;2024-03-06T11:30:11;43.38;;;15.98;;
41829;SDS011;38614;43.472;23.936;2024-03-06T11:33:01;34.55;;;15.45;;
41829;SDS011;38614;43.472;23.936;2024-03-06T11:39:13;43.13;;;17.65;;
41829;SDS011;38614;43.472;23.936;2024-03-06T11:42:04;44.00;;;15.13;;
41829;SDS011;38614;43.472;23.936;2024-03-06T11:44:56;29.63;;;15.70;;
41829;SDS011;38614;43.472;23.936;2024-03-06T11:50:45;44.25;;;17.42;;
41829;SDS011;38614;43.472;23.936;2024-03-06T11:53:33;37.35;;;16.23;;
41829;SDS011;38614;43.472;23.936;2024-03-06T11:56:26;36.75;;;15.32;;
41829;SDS011;38614;43.472;23.936;2024-03-06T11:59:14;31.15;;;15.20;;
41829;SDS011;38614;43.472;23.936;2024-03-06T12:02:03;37.15;;;16.20;;
41829;SDS011;38614;43.472;23.936;2024-03-06T12:04:52;40.63;;;16.30;;
41829;SDS011;38614;43.472;23.936;2024-03-06T12:07:47;40.63;;;16.05;;
41829;SDS011;38614;43.472;23.936;2024-03-06T12:10:38;37.08;;;15.88;;
41829;SDS011;38614;43.472;23.936;2024-03-06T12:13:26;39.08;;;16.85;;
41829;SDS011;38614;43.472;23.936;2024-03-06T12:16:14;36.08;;;16.15;;
41829;SDS011;38614;43.472;23.936;2024-03-06T12:19:09;43.33;;;16.35;;
41829;SDS011;38614;43.472;23.936;2024-03-06T12:22:01;38.78;;;15.82;;
41829;SDS011;38614;43.472;23.936;2024-03-06T12:25:00;31.95;;;14.18;;
41829;SDS011;38614;43.472;23.936;2024-03-06T12:27:48;39.45;;;17.85;;
41829;SDS011;38614;43.472;23.936;2024-03-06T12:30:45;42.45;;;16.92;;
41829;SDS011;38614;43.472;23.936;2024-03-06T12:33:33;41.63;;;15.82;;
41829;SDS011;38614;43.472;23.936;2024-03-06T12:36:27;41.53;;;15.70;;
41829;SDS011;38614;43.472;23.936;2024-03-06T12:39:15;32.58;;;14.23;;
41829;SDS011;38614;43.472;23.936;2024-03-06T12:42:05;33.75;;;14.57;;
41829;SDS011;38614;43.472;23.936;2024-03-06T12:44:53;33.92;;;15.02;;
41829;SDS011;38614;43.472;23.936;2024-03-06T12:47:42;37.78;;;16.83;;
41829;SDS011;38614;43.472;23.936;2024-03-06T12:50:30;45.50;;;17.55;;
41829;SDS011;38614;43.472;23.936;2024-03-06T12:53:29;42.33;;;17.98;;
41829;SDS011;38614;43.472;23.936;2024-03-06T12:56:17;34.65;;;15.73;;
41829;SDS011;38614;43.472;23.936;2024-03-06T12:59:04;31.02;;;15.60;;
41829;SDS011;38614;43.472;23.936;2024-03-06T13:01:52;38.70;;;15.88;;
41829;SDS011;38614;43.472;23.936;2024-03-06T13:04:41;29.15;;;14.18;;
41829;SDS011;38614;43.472;23.936;2024-03-06T13:07:31;30.90;;;15.20;;
41829;SDS011;38614;43.472;23.936;2024-03-06T13:10:18;33.45;;;14.18;;
41829;SDS011;38614;43.472;23.936;2024-03-06T13:13:07;32.63;;;14.38;;
41829;SDS011;38614;43.472;23.936;2024-03-06T13:15:54;27.77;;;14.02;;
41829;SDS011;38614;43.472;23.936;2024-03-06T13:18:42;28.27;;;13.50;;
41829;SDS011;38614;43.472;23.936;2024-03-06T13:21:31;24.30;;;13.77;;
41829;SDS011;38614;43.472;23.936;2024-03-06T13:24:21;27.95;;;14.77;;
41829;SDS011;38614;43.472;23.936;2024-03-06T13:27:09;29.30;;;13.88;;
41829;SDS011;38614;43.472;23.936;2024-03-06T13:29:58;26.63;;;12.60;;
41829;SDS011;38614;43.472;23.936;2024-03-06T13:32:53;25.13;;;12.15;;
41829;SDS011;38614;43.472;23.936;2024-03-06T13:35:41;30.02;;;13.25;;
41829;SDS011;38614;43.472;23.936;2024-03-06T13:38:29;27.15;;;12.57;;
41829;SDS011;38614;43.472;23.936;2024-03-06T13:41:17;28.95;;;12.07;;
41829;SDS011;38614;43.472;23.936;2024-03-06T13:44:05;35.45;;;13.07;;
41829;SDS011;38614;43.472;23.936;2024-03-06T13:46:53;24.05;;;13.00;;
41829;SDS011;38614;43.472;23.936;2024-03-06T13:49:40;31.48;;;12.43;;
41829;SDS011;38614;43.472;23.936;2024-03-06T13:52:28;27.08;;;13.25;;
41829;SDS011;38614;43.472;23.936;2024-03-06T13:55:16;35.95;;;11.95;;
41829;SDS011;38614;43.472;23.936;2024-03-06T13:58:04;30.77;;;14.35;;
41829;SDS011;38614;43.472;23.936;2024-03-06T14:00:52;48.05;;;15.10;;
41829;SDS011;38614;43.472;23.936;2024-03-06T14:03:41;30.17;;;13.60;;
41829;SDS011;38614;43.472;23.936;2024-03-06T14:06:38;32.55;;;12.38;;
41829;SDS011;38614;43.472;23.936;2024-03-06T14:09:26;25.38;;;12.20;;
41829;SDS011;38614;43.472;23.936;2024-03-06T14:12:14;35.03;;;13.02;;
41829;SDS011;38614;43.472;23.936;2024-03-06T14:15:04;25.63;;;12.02;;
41829;SDS011;38614;43.472;23.936;2024-03-06T14:18:05;30.95;;;13.40;;
41829;SDS011;38614;43.472;23.936;2024-03-06T14:20:54;28.38;;;14.32;;
41829;SDS011;38614;43.472;23.936;2024-03-06T14:23:41;29.77;;;14.45;;
41829;SDS011;38614;43.472;23.936;2024-03-06T14:26:30;26.95;;;12.93;;
41829;SDS011;38614;43.472;23.936;2024-03-06T14:29:17;28.98;;;13.88;;
41829;SDS011;38614;43.472;23.936;2024-03-06T14:32:08;28.90;;;14.82;;
41829;SDS011;38614;43.472;23.936;2024-03-06T14:34:56;34.80;;;14.27;;
41829;SDS011;38614;43.472;23.936;2024-03-06T14:37:44;34.88;;;12.45;;
41829;SDS011;38614;43.472;23.936;2024-03-06T14:40:34;24.52;;;12.98;;
41829;SDS011;38614;43.472;23.936;2024-03-06T14:43:23;26.65;;;11.90;;
41829;SDS011;38614;43.472;23.936;2024-03-06T14:46:11;23.75;;;13.02;;
41829;SDS011;38614;43.472;23.936;2024-03-06T14:48:59;32.92;;;13.57;;
41829;SDS011;38614;43.472;23.936;2024-03-06T14:51:50;29.88;;;14.20;;
41829;SDS011;38614;43.472;23.936;2024-03-06T14:54:37;25.02;;;13.50;;
41829;SDS011;38614;43.472;23.936;2024-03-06T14:57:30;38.70;;;14.93;;
41829;SDS011;38614;43.472;23.936;2024-03-06T15:00:18;27.55;;;13.45;;
41829;SDS011;38614;43.472;23.936;2024-03-06T15:03:09;41.53;;;14.05;;
41829;SDS011;38614;43.472;23.936;2024-03-06T15:05:57;30.27;;;12.55;;
41829;SDS011;38614;43.472;23.936;2024-03-06T15:08:49;25.90;;;12.85;;
41829;SDS011;38614;43.472;23.936;2024-03-06T15:11:41;30.30;;;13.43;;
41829;SDS011;38614;43.472;23.936;2024-03-06T15:14:28;36.13;;;14.45;;
41829;SDS011;38614;43.472;23.936;2024-03-06T15:17:24;31.02;;;12.85;;
41829;SDS011;38614;43.472;23.936;2024-03-06T15:20:21;29.45;;;14.73;;
41829;SDS011;38614;43.472;23.936;2024-03-06T15:23:09;30.27;;;13.70;;
41829;SDS011;38614;43.472;23.936;2024-03-06T15:25:58;26.23;;;13.02;;
41829;SDS011;38614;43.472;23.936;2024-03-06T15:28:45;28.13;;;13.32;;
41829;SDS011;38614;43.472;23.936;2024-03-06T15:31:33;30.98;;;13.38;;
41829;SDS011;38614;43.472;23.936;2024-03-06T15:34:23;26.75;;;13.60;;
41829;SDS011;38614;43.472;23.936;2024-03-06T15:37:11;32.80;;;14.75;;
41829;SDS011;38614;43.472;23.936;2024-03-06T15:39:58;30.70;;;13.80;;
41829;SDS011;38614;43.472;23.936;2024-03-06T15:42:46;31.90;;;13.65;;
41829;SDS011;38614;43.472;23.936;2024-03-06T15:45:36;28.08;;;13.02;;
41829;SDS011;38614;43.472;23.936;2024-03-06T15:48:24;32.83;;;13.88;;
41829;SDS011;38614;43.472;23.936;2024-03-06T15:51:16;37.17;;;15.32;;
41829;SDS011;38614;43.472;23.936;2024-03-06T15:54:04;34.83;;;14.00;;
41829;SDS011;38614;43.472;23.936;2024-03-06T15:56:51;47.15;;;15.93;;
41829;SDS011;38614;43.472;23.936;2024-03-06T15:59:40;40.80;;;16.40;;
41829;SDS011;38614;43.472;23.936;2024-03-06T16:02:28;29.83;;;15.88;;
41829;SDS011;38614;43.472;23.936;2024-03-06T16:05:16;38.13;;;16.75;;
41829;SDS011;38614;43.472;23.936;2024-03-06T16:08:04;50.97;;;18.48;;
41829;SDS011;38614;43.472;23.936;2024-03-06T16:10:53;45.28;;;17.27;;
41829;SDS011;38614;43.472;23.936;2024-03-06T16:13:40;41.50;;;19.25;;
41829;SDS011;38614;43.472;23.936;2024-03-06T16:16:28;35.78;;;17.17;;
41829;SDS011;38614;43.472;23.936;2024-03-06T16:19:16;38.88;;;18.02;;
41829;SDS011;38614;43.472;23.936;2024-03-06T16:22:11;41.65;;;18.10;;
41829;SDS011;38614;43.472;23.936;2024-03-06T16:24:59;31.85;;;16.77;;
41829;SDS011;38614;43.472;23.936;2024-03-06T16:27:47;44.08;;;17.13;;
41829;SDS011;38614;43.472;23.936;2024-03-06T16:30:34;44.38;;;19.50;;
41829;SDS011;38614;43.472;23.936;2024-03-06T16:33:22;55.75;;;19.23;;
41829;SDS011;38614;43.472;23.936;2024-03-06T16:36:11;53.92;;;17.95;;